createdAt,value
2023-03-23T00:00:21.456Z,931.31
2023-03-23T00:01:21.543Z,931.36
2023-03-23T00:02:21.550Z,931.40
2023-03-23T00:03:21.860Z,931.39
2023-03-23T00:04:21.540Z,931.44
2023-03-23T00:05:21.366Z,931.42
2023-03-23T00:06:21.441Z,931.35
2023-03-23T00:07:21.374Z,931.36
2023-03-23T00:08:21.461Z,931.29
2023-03-23T00:09:21.394Z,931.27
2023-03-23T00:10:21.436Z,931.27
2023-03-23T00:11:21.308Z,931.27
2023-03-23T00:12:21.379Z,931.28
2023-03-23T00:13:21.354Z,931.31
2023-03-23T00:14:21.392Z,931.30
2023-03-23T00:15:21.402Z,931.33
2023-03-23T00:16:21.365Z,931.34
2023-03-23T00:17:21.327Z,931.35
2023-03-23T00:18:21.313Z,931.35
2023-03-23T00:19:21.319Z,931.34
2023-03-23T00:20:21.226Z,931.35
2023-03-23T00:21:21.337Z,931.38
2023-03-23T00:22:21.243Z,931.38
2023-03-23T00:23:21.338Z,931.38
2023-03-23T00:24:21.254Z,931.45
2023-03-23T00:25:21.301Z,931.45
2023-03-23T00:26:21.883Z,931.45
2023-03-23T00:27:21.283Z,931.53
2023-03-23T00:28:21.184Z,931.52
2023-03-23T00:29:21.191Z,931.60
2023-03-23T00:30:21.201Z,931.57
2023-03-23T00:31:21.176Z,931.62
2023-03-23T00:32:21.206Z,931.64
2023-03-23T00:33:21.185Z,931.66
2023-03-23T00:34:21.189Z,931.71
2023-03-23T00:35:21.182Z,931.74
2023-03-23T00:36:21.341Z,931.74
2023-03-23T00:37:21.136Z,931.80
2023-03-23T00:38:21.050Z,931.78
2023-03-23T00:39:21.152Z,931.81
2023-03-23T00:40:21.466Z,931.83
2023-03-23T00:41:21.072Z,931.83
2023-03-23T00:42:21.087Z,931.85
2023-03-23T00:43:21.085Z,931.86
2023-03-23T00:44:21.910Z,931.83
2023-03-23T00:45:20.999Z,931.82
2023-03-23T00:46:21.076Z,931.82
2023-03-23T00:47:20.910Z,931.82
2023-03-23T00:48:21.015Z,931.78
2023-03-23T00:49:20.925Z,931.78
2023-03-23T00:50:24.340Z,931.77
2023-03-23T00:51:20.936Z,931.76
2023-03-23T00:52:20.947Z,931.75
2023-03-23T00:53:20.906Z,931.76
2023-03-23T00:54:20.858Z,931.75
2023-03-23T00:55:20.864Z,931.78
2023-03-23T00:56:20.860Z,931.81
2023-03-23T00:57:20.843Z,931.79
2023-03-23T00:58:20.882Z,931.84
2023-03-23T00:59:20.791Z,931.84
2023-03-23T01:00:20.851Z,931.80
2023-03-23T01:01:20.762Z,931.78
2023-03-23T01:02:20.770Z,931.76
2023-03-23T01:03:20.809Z,931.74
2023-03-23T01:04:20.874Z,931.76
2023-03-23T01:05:20.731Z,931.74
2023-03-23T01:06:20.726Z,931.75
2023-03-23T01:07:20.734Z,931.76
2023-03-23T01:08:20.763Z,931.78
2023-03-23T01:09:20.916Z,931.79
2023-03-23T01:10:20.728Z,931.82
2023-03-23T01:11:20.828Z,931.82
2023-03-23T01:12:20.662Z,931.80
2023-03-23T01:13:20.678Z,931.83
2023-03-23T01:14:20.678Z,931.82
2023-03-23T01:15:20.766Z,931.81
2023-03-23T01:16:20.591Z,931.84
2023-03-23T01:17:20.658Z,931.86
2023-03-23T01:18:20.602Z,931.85
2023-03-23T01:19:20.608Z,931.85
2023-03-23T01:20:20.619Z,931.85
2023-03-23T01:21:20.517Z,931.83
2023-03-23T01:22:20.546Z,931.83
2023-03-23T01:23:20.533Z,931.86
2023-03-23T01:24:20.756Z,931.86
2023-03-23T01:25:20.513Z,931.88
2023-03-23T01:26:20.557Z,931.88
2023-03-23T01:27:20.666Z,931.91
2023-03-23T01:28:20.526Z,931.92
2023-03-23T01:29:20.577Z,931.94
2023-03-23T01:30:20.535Z,931.94
2023-03-23T01:31:20.485Z,931.92
2023-03-23T01:32:20.490Z,931.89
2023-03-23T01:33:20.454Z,931.92
2023-03-23T01:34:20.418Z,931.90
2023-03-23T01:35:20.450Z,931.90
2023-03-23T01:36:20.423Z,931.89
2023-03-23T01:37:20.487Z,931.87
2023-03-23T01:38:20.426Z,931.86
2023-03-23T01:39:20.351Z,931.86
2023-03-23T01:40:20.543Z,931.85
2023-03-23T01:41:20.355Z,931.84
2023-03-23T01:42:20.337Z,931.83
2023-03-23T01:43:20.370Z,931.82
2023-03-23T01:44:20.380Z,931.82
2023-03-23T01:45:20.331Z,931.81
2023-03-23T01:46:20.291Z,931.81
2023-03-23T01:47:20.313Z,931.82
2023-03-23T01:48:20.473Z,931.86
2023-03-23T01:49:20.308Z,931.87
2023-03-23T01:50:20.319Z,931.97
2023-03-23T01:51:21.626Z,931.93
2023-03-23T01:52:20.322Z,931.91
2023-03-23T01:53:20.232Z,931.91
2023-03-23T01:54:20.238Z,931.92
2023-03-23T01:55:20.252Z,931.93
2023-03-23T01:56:20.257Z,931.92
2023-03-23T01:57:20.219Z,931.92
2023-03-23T01:58:20.163Z,931.91
2023-03-23T01:59:20.173Z,931.93
2023-03-23T02:00:20.201Z,931.94
2023-03-23T02:01:20.189Z,931.94
2023-03-23T02:02:20.904Z,931.96
2023-03-23T02:03:20.204Z,931.98
2023-03-23T02:04:20.160Z,931.99
2023-03-23T02:05:20.121Z,932.00
2023-03-23T02:06:20.116Z,931.93
2023-03-23T02:07:20.131Z,931.97
2023-03-23T02:08:20.129Z,932.02
2023-03-23T02:09:20.032Z,931.94
2023-03-23T02:10:20.040Z,931.96
2023-03-23T02:11:22.053Z,931.98
2023-03-23T02:12:20.046Z,931.97
2023-03-23T02:13:20.020Z,931.91
2023-03-23T02:14:20.033Z,931.98
2023-03-23T02:15:20.037Z,931.95
2023-03-23T02:16:19.970Z,931.96
2023-03-23T02:17:20.079Z,931.94
2023-03-23T02:18:21.015Z,931.92
2023-03-23T02:19:20.093Z,931.96
2023-03-23T02:20:20.003Z,931.97
2023-03-23T02:21:19.999Z,932.01
2023-03-23T02:22:20.013Z,932.03
2023-03-23T02:23:20.218Z,932.03
2023-03-23T02:24:20.383Z,932.05
2023-03-23T02:25:20.863Z,932.05
2023-03-23T02:26:19.939Z,932.02
2023-03-23T02:27:19.945Z,932.01
2023-03-23T02:28:19.948Z,932.00
2023-03-23T02:29:19.968Z,932.01
2023-03-23T02:30:19.972Z,932.02
2023-03-23T02:31:20.978Z,932.02
2023-03-23T02:32:19.888Z,932.02
2023-03-23T02:33:19.884Z,932.03
2023-03-23T02:34:19.909Z,932.04
2023-03-23T02:35:19.898Z,932.04
2023-03-23T02:36:19.905Z,932.03
2023-03-23T02:37:20.349Z,932.02
2023-03-23T02:38:19.814Z,931.99
2023-03-23T02:39:19.771Z,931.97
2023-03-23T02:40:20.048Z,931.96
2023-03-23T02:41:19.930Z,931.95
2023-03-23T02:42:19.957Z,931.96
2023-03-23T02:43:19.848Z,931.93
2023-03-23T02:44:19.800Z,931.93
2023-03-23T02:45:19.812Z,931.94
2023-03-23T02:46:19.778Z,931.97
2023-03-23T02:47:19.669Z,931.91
2023-03-23T02:48:19.833Z,931.91
2023-03-23T02:49:19.741Z,931.89
2023-03-23T02:50:20.505Z,931.94
2023-03-23T02:51:19.704Z,931.94
2023-03-23T02:52:19.679Z,931.95
2023-03-23T02:53:19.662Z,931.95
2023-03-23T02:54:19.817Z,931.98
2023-03-23T02:55:19.716Z,931.99
2023-03-23T02:56:19.605Z,931.97
2023-03-23T02:57:19.721Z,931.99
2023-03-23T02:58:19.700Z,932.05
2023-03-23T02:59:19.627Z,932.03
2023-03-23T03:00:20.012Z,932.02
2023-03-23T03:01:19.666Z,931.98
2023-03-23T03:02:19.714Z,931.98
2023-03-23T03:03:19.559Z,932.02
2023-03-23T03:04:19.570Z,931.98
2023-03-23T03:05:19.514Z,931.92
2023-03-23T03:06:19.592Z,931.91
2023-03-23T03:07:19.786Z,931.90
2023-03-23T03:08:19.486Z,931.89
2023-03-23T03:09:19.518Z,931.89
2023-03-23T03:10:19.502Z,931.89
2023-03-23T03:11:19.617Z,931.89
2023-03-23T03:12:19.515Z,931.90
2023-03-23T03:13:19.485Z,931.91
2023-03-23T03:14:19.552Z,931.95
2023-03-23T03:15:19.440Z,931.99
2023-03-23T03:16:19.462Z,931.98
2023-03-23T03:17:19.475Z,931.94
2023-03-23T03:18:19.925Z,931.92
2023-03-23T03:19:19.317Z,931.92
2023-03-23T03:20:19.425Z,931.95
2023-03-23T03:21:19.496Z,931.96
2023-03-23T03:22:19.709Z,931.93
2023-03-23T03:23:19.406Z,931.91
2023-03-23T03:24:19.545Z,931.90
2023-03-23T03:25:19.312Z,931.91
2023-03-23T03:26:19.322Z,931.89
2023-03-23T03:27:19.321Z,931.88
2023-03-23T03:28:19.276Z,931.87
2023-03-23T03:29:19.246Z,931.88
2023-03-23T03:30:19.253Z,931.89
2023-03-23T03:31:19.288Z,931.91
2023-03-23T03:32:19.206Z,931.92
2023-03-23T03:33:19.408Z,931.93
2023-03-23T03:34:19.279Z,931.96
2023-03-23T03:35:20.006Z,931.96
2023-03-23T03:36:19.342Z,931.99
2023-03-23T03:37:19.194Z,932.01
2023-03-23T03:38:19.144Z,932.01
2023-03-23T03:39:19.131Z,932.01
2023-03-23T03:40:19.156Z,932.00
2023-03-23T03:41:19.051Z,932.01
2023-03-23T03:42:19.076Z,932.05
2023-03-23T03:43:19.035Z,932.06
2023-03-23T03:44:19.003Z,932.04
2023-03-23T03:45:19.000Z,932.03
2023-03-23T03:46:18.984Z,932.04
2023-03-23T03:47:19.005Z,932.04
2023-03-23T03:48:18.991Z,932.04
2023-03-23T03:49:19.002Z,932.11
2023-03-23T03:50:19.042Z,932.08
2023-03-23T03:51:18.910Z,932.13
2023-03-23T03:52:18.948Z,932.08
2023-03-23T03:53:18.942Z,932.05
2023-03-23T03:54:19.058Z,932.06
2023-03-23T03:55:18.955Z,932.06
2023-03-23T03:56:18.966Z,932.05
2023-03-23T03:57:18.852Z,932.04
2023-03-23T03:58:18.881Z,932.05
2023-03-23T03:59:21.672Z,932.03
2023-03-23T04:00:18.870Z,932.03
2023-03-23T04:01:18.877Z,932.00
2023-03-23T04:02:18.802Z,931.99
2023-03-23T04:03:18.820Z,932.02
2023-03-23T04:04:18.793Z,932.02
2023-03-23T04:05:19.030Z,931.96
2023-03-23T04:06:18.772Z,931.92
2023-03-23T04:07:18.773Z,931.91
2023-03-23T04:08:18.738Z,931.90
2023-03-23T04:09:18.749Z,931.92
2023-03-23T04:10:32.816Z,931.94
2023-03-23T04:11:33.170Z,931.92
2023-03-23T04:12:18.853Z,931.90
2023-03-23T04:13:18.792Z,931.88
2023-03-23T04:14:18.697Z,931.87
2023-03-23T04:15:18.690Z,931.84
2023-03-23T04:16:18.665Z,931.80
2023-03-23T04:17:18.782Z,931.78
2023-03-23T04:18:18.682Z,931.78
2023-03-23T04:19:18.616Z,931.79
2023-03-23T04:20:18.623Z,931.79
2023-03-23T04:21:18.705Z,931.81
2023-03-23T04:22:18.612Z,931.77
2023-03-23T04:23:18.544Z,931.78
2023-03-23T04:24:23.167Z,931.75
2023-03-23T04:25:18.550Z,931.71
2023-03-23T04:26:18.560Z,931.70
2023-03-23T04:27:18.635Z,931.69
2023-03-23T04:28:18.477Z,931.69
2023-03-23T04:29:18.486Z,931.68
2023-03-23T04:30:18.568Z,931.66
2023-03-23T04:31:18.495Z,931.67
2023-03-23T04:32:18.504Z,931.67
2023-03-23T04:33:18.404Z,931.66
2023-03-23T04:34:18.487Z,931.65
2023-03-23T04:35:18.418Z,931.66
2023-03-23T04:36:18.433Z,931.66
2023-03-23T04:37:18.431Z,931.64
2023-03-23T04:38:18.436Z,931.62
2023-03-23T04:39:18.523Z,931.61
2023-03-23T04:40:18.361Z,931.59
2023-03-23T04:41:18.358Z,931.57
2023-03-23T04:42:18.437Z,931.57
2023-03-23T04:43:18.386Z,931.55
2023-03-23T04:44:18.388Z,931.58
2023-03-23T04:45:18.493Z,931.59
2023-03-23T04:46:18.298Z,931.59
2023-03-23T04:47:18.293Z,931.58
2023-03-23T04:48:18.302Z,931.57
2023-03-23T04:49:18.309Z,931.57
2023-03-23T04:50:18.323Z,931.57
2023-03-23T04:51:18.346Z,931.58
2023-03-23T04:52:18.224Z,931.59
2023-03-23T04:53:18.233Z,931.60
2023-03-23T04:54:18.238Z,931.57
2023-03-23T04:55:18.244Z,931.54
2023-03-23T04:56:19.080Z,931.53
2023-03-23T04:57:18.261Z,931.52
2023-03-23T04:58:18.174Z,931.48
2023-03-23T04:59:18.244Z,931.44
2023-03-23T05:00:18.183Z,931.43
2023-03-23T05:01:18.179Z,931.42
2023-03-23T05:02:18.276Z,931.40
2023-03-23T05:03:18.104Z,931.41
2023-03-23T05:04:18.104Z,931.39
2023-03-23T05:05:18.125Z,931.37
2023-03-23T05:06:18.117Z,931.37
2023-03-23T05:07:18.132Z,931.34
2023-03-23T05:08:18.038Z,931.33
2023-03-23T05:09:18.037Z,931.30
2023-03-23T05:10:18.139Z,931.31
2023-03-23T05:11:18.150Z,931.32
2023-03-23T05:12:18.060Z,931.32
2023-03-23T05:13:18.159Z,931.34
2023-03-23T05:14:18.073Z,931.34
2023-03-23T05:15:17.976Z,931.34
2023-03-23T05:16:17.995Z,931.31
2023-03-23T05:17:18.097Z,931.32
2023-03-23T05:18:18.082Z,931.32
2023-03-23T05:19:18.001Z,931.33
2023-03-23T05:20:17.986Z,931.37
2023-03-23T05:21:17.937Z,931.39
2023-03-23T05:22:17.918Z,931.37
2023-03-23T05:23:17.938Z,931.37
2023-03-23T05:24:17.938Z,931.35
2023-03-23T05:25:17.948Z,931.34
2023-03-23T05:26:17.839Z,931.32
2023-03-23T05:27:17.941Z,931.32
2023-03-23T05:28:17.872Z,931.27
2023-03-23T05:29:17.873Z,931.26
2023-03-23T05:30:17.876Z,931.28
2023-03-23T05:31:18.610Z,931.25
2023-03-23T05:32:17.861Z,931.24
2023-03-23T05:33:17.809Z,931.25
2023-03-23T05:34:17.883Z,931.27
2023-03-23T05:35:17.824Z,931.30
2023-03-23T05:36:17.840Z,931.29
2023-03-23T05:37:17.841Z,931.29
2023-03-23T05:38:17.739Z,931.30
2023-03-23T05:39:17.737Z,931.27
2023-03-23T05:40:17.746Z,931.27
2023-03-23T05:41:17.767Z,931.26
2023-03-23T05:42:17.859Z,931.25
2023-03-23T05:43:17.773Z,931.25
2023-03-23T05:44:17.735Z,931.24
2023-03-23T05:45:17.780Z,931.27
2023-03-23T05:46:17.687Z,931.28
2023-03-23T05:47:17.708Z,931.28
2023-03-23T05:48:17.704Z,931.26
2023-03-23T05:49:17.772Z,931.24
2023-03-23T05:50:17.615Z,931.20
2023-03-23T05:51:17.680Z,931.17
2023-03-23T05:52:17.622Z,931.12
2023-03-23T05:53:17.629Z,931.09
2023-03-23T05:54:17.642Z,931.07
2023-03-23T05:55:17.642Z,931.08
2023-03-23T05:56:17.552Z,931.11
2023-03-23T05:57:17.614Z,931.13
2023-03-23T05:58:17.646Z,931.10
2023-03-23T05:59:17.544Z,931.07
2023-03-23T06:00:17.476Z,931.07
2023-03-23T06:01:17.751Z,931.07
2023-03-23T06:02:17.487Z,931.08
2023-03-23T06:03:17.578Z,931.04
2023-03-23T06:04:17.502Z,931.03
2023-03-23T06:05:17.513Z,931.03
2023-03-23T06:06:17.414Z,931.01
2023-03-23T06:07:17.518Z,931.01
2023-03-23T06:08:17.504Z,931.03
2023-03-23T06:09:17.491Z,931.02
2023-03-23T06:10:17.442Z,931.01
2023-03-23T06:11:17.403Z,931.02
2023-03-23T06:12:17.409Z,930.98
2023-03-23T06:13:17.424Z,930.95
2023-03-23T06:14:17.322Z,930.95
2023-03-23T06:15:17.366Z,930.96
2023-03-23T06:16:17.585Z,930.95
2023-03-23T06:17:17.389Z,930.93
2023-03-23T06:18:17.289Z,930.93
2023-03-23T06:19:17.360Z,930.92
2023-03-23T06:20:17.365Z,930.91
2023-03-23T06:21:18.548Z,930.91
2023-03-23T06:22:17.993Z,930.90
2023-03-23T06:23:17.323Z,930.92
2023-03-23T06:24:17.291Z,930.87
2023-03-23T06:25:17.316Z,930.86
2023-03-23T06:26:17.325Z,930.87
2023-03-23T06:27:17.343Z,930.87
2023-03-23T06:28:17.238Z,930.89
2023-03-23T06:29:17.245Z,930.91
2023-03-23T06:30:17.309Z,930.90
2023-03-23T06:31:17.214Z,930.89
2023-03-23T06:32:17.220Z,930.85
2023-03-23T06:33:19.240Z,930.88
2023-03-23T06:34:17.182Z,930.81
2023-03-23T06:35:17.242Z,930.82
2023-03-23T06:36:17.202Z,930.80
2023-03-23T06:37:17.153Z,930.81
2023-03-23T06:38:17.166Z,930.79
2023-03-23T06:39:17.103Z,930.79
2023-03-23T06:40:17.115Z,930.80
2023-03-23T06:41:17.074Z,930.80
2023-03-23T06:42:17.115Z,930.81
2023-03-23T06:43:17.042Z,930.77
2023-03-23T06:44:17.107Z,930.71
2023-03-23T06:45:17.152Z,930.67
2023-03-23T06:46:17.063Z,930.64
2023-03-23T06:47:17.017Z,930.59
2023-03-23T06:48:17.067Z,930.59
2023-03-23T06:49:17.033Z,930.58
2023-03-23T06:50:16.985Z,930.56
2023-03-23T06:51:17.045Z,930.59
2023-03-23T06:52:16.999Z,930.58
2023-03-23T06:53:16.964Z,930.57
2023-03-23T06:54:16.914Z,930.56
2023-03-23T06:55:16.922Z,930.56
2023-03-23T06:56:17.012Z,930.55
2023-03-23T06:57:17.140Z,930.54
2023-03-23T06:58:17.088Z,930.53
2023-03-23T06:59:16.889Z,930.55
2023-03-23T07:00:17.107Z,930.51
2023-03-23T07:01:17.561Z,930.57
2023-03-23T07:02:16.915Z,930.55
2023-03-23T07:03:16.896Z,930.56
2023-03-23T07:04:16.797Z,930.59
2023-03-23T07:05:16.971Z,930.61
2023-03-23T07:06:16.832Z,930.64
2023-03-23T07:07:16.887Z,930.64
2023-03-23T07:08:16.889Z,930.62
2023-03-23T07:09:16.820Z,930.63
2023-03-23T07:10:16.873Z,930.61
2023-03-23T07:11:16.912Z,930.58
2023-03-23T07:12:16.876Z,930.58
2023-03-23T07:13:16.784Z,930.58
2023-03-23T07:14:16.787Z,930.57
2023-03-23T07:15:16.793Z,930.56
2023-03-23T07:16:18.548Z,930.57
2023-03-23T07:17:16.807Z,930.55
2023-03-23T07:18:16.713Z,930.52
2023-03-23T07:19:16.820Z,930.52
2023-03-23T07:20:16.725Z,930.52
2023-03-23T07:21:16.835Z,930.53
2023-03-23T07:22:16.788Z,930.49
2023-03-23T07:23:16.689Z,930.47
2023-03-23T07:24:16.753Z,930.47
2023-03-23T07:25:17.147Z,930.45
2023-03-23T07:26:16.817Z,930.41
2023-03-23T07:27:16.724Z,930.40
2023-03-23T07:28:16.855Z,930.38
2023-03-23T07:29:16.764Z,930.39
2023-03-23T07:30:16.691Z,930.39
2023-03-23T07:31:17.130Z,930.39
2023-03-23T07:32:16.684Z,930.38
2023-03-23T07:33:16.685Z,930.36
2023-03-23T07:34:16.642Z,930.34
2023-03-23T07:35:16.860Z,930.32
2023-03-23T07:36:16.737Z,930.32
2023-03-23T07:37:16.582Z,930.29
2023-03-23T07:38:16.614Z,930.25
2023-03-23T07:39:16.821Z,930.24
2023-03-23T07:40:16.589Z,930.23
2023-03-23T07:41:16.749Z,930.22
2023-03-23T07:42:16.583Z,930.23
2023-03-23T07:43:17.135Z,930.23
2023-03-23T07:44:16.552Z,930.20
2023-03-23T07:45:16.605Z,930.19
2023-03-23T07:46:17.178Z,930.19
2023-03-23T07:47:16.871Z,930.15
2023-03-23T07:48:21.415Z,930.15
2023-03-23T07:49:16.480Z,930.15
2023-03-23T07:50:16.592Z,930.14
2023-03-23T07:51:16.802Z,930.12
2023-03-23T07:52:16.601Z,930.12
2023-03-23T07:53:16.515Z,930.13
2023-03-23T07:54:16.509Z,930.13
2023-03-23T07:55:16.534Z,930.12
2023-03-23T07:56:16.481Z,930.14
2023-03-23T07:57:16.596Z,930.15
2023-03-23T07:58:16.503Z,930.15
2023-03-23T07:59:17.129Z,930.16
2023-03-23T08:00:16.396Z,930.16
2023-03-23T08:01:16.519Z,930.16
2023-03-23T08:02:16.382Z,930.16
2023-03-23T08:03:16.438Z,930.18
2023-03-23T08:04:16.375Z,930.16
2023-03-23T08:05:16.362Z,930.16
2023-03-23T08:06:16.352Z,930.14
2023-03-23T08:07:16.361Z,930.13
2023-03-23T08:08:16.268Z,930.11
2023-03-23T08:09:17.195Z,930.12
2023-03-23T08:10:16.281Z,930.13
2023-03-23T08:11:16.282Z,930.14
2023-03-23T08:12:16.283Z,930.14
2023-03-23T08:13:16.461Z,930.16
2023-03-23T08:14:19.288Z,930.18
2023-03-23T08:15:16.302Z,930.14
2023-03-23T08:16:16.210Z,930.14
2023-03-23T08:17:16.226Z,930.12
2023-03-23T08:18:16.163Z,930.12
2023-03-23T08:19:16.225Z,930.08
2023-03-23T08:20:16.138Z,930.06
2023-03-23T08:21:16.242Z,930.05
2023-03-23T08:22:16.134Z,930.08
2023-03-23T08:23:16.155Z,930.07
2023-03-23T08:24:16.405Z,930.08
2023-03-23T08:25:16.004Z,930.10
2023-03-23T08:26:16.064Z,930.10
2023-03-23T08:27:16.010Z,930.11
2023-03-23T08:28:16.095Z,930.12
2023-03-23T08:29:16.082Z,930.13
2023-03-23T08:30:16.088Z,930.14
2023-03-23T08:31:16.004Z,930.13
2023-03-23T08:32:15.910Z,930.12
2023-03-23T08:33:16.060Z,930.11
2023-03-23T08:34:15.926Z,930.09
2023-03-23T08:35:16.172Z,930.10
2023-03-23T08:36:15.977Z,930.08
2023-03-23T08:37:16.036Z,930.06
2023-03-23T08:38:15.886Z,930.05
2023-03-23T08:39:15.944Z,930.03
2023-03-23T08:40:18.207Z,930.04
2023-03-23T08:41:16.167Z,930.06
2023-03-23T08:42:16.069Z,930.07
2023-03-23T08:43:15.816Z,930.10
2023-03-23T08:44:15.893Z,930.13
2023-03-23T08:45:15.973Z,930.17
2023-03-23T08:46:15.778Z,930.17
2023-03-23T08:47:16.306Z,930.19
2023-03-23T08:48:15.810Z,930.18
2023-03-23T08:49:15.910Z,930.20
2023-03-23T08:50:15.817Z,930.20
2023-03-23T08:51:15.820Z,930.19
2023-03-23T08:52:15.921Z,930.15
2023-03-23T08:53:16.649Z,930.16
2023-03-23T08:54:15.870Z,930.15
2023-03-23T08:55:15.737Z,930.15
2023-03-23T08:56:15.674Z,930.15
2023-03-23T08:57:15.753Z,930.14
2023-03-23T08:58:15.872Z,930.15
2023-03-23T08:59:15.874Z,930.16
2023-03-23T09:00:16.158Z,930.16
2023-03-23T09:01:15.682Z,930.18
2023-03-23T09:02:15.701Z,930.18
2023-03-23T09:03:15.596Z,930.21
2023-03-23T09:04:15.578Z,930.23
2023-03-23T09:05:15.508Z,930.22
2023-03-23T09:06:16.121Z,930.25
2023-03-23T09:07:15.544Z,930.25
2023-03-23T09:08:15.596Z,930.27
2023-03-23T09:09:15.508Z,930.29
2023-03-23T09:10:15.472Z,930.30
2023-03-23T09:11:16.504Z,930.31
2023-03-23T09:12:15.486Z,930.36
2023-03-23T09:13:15.494Z,930.33
2023-03-23T09:14:15.582Z,930.34
2023-03-23T09:15:18.627Z,930.33
2023-03-23T09:16:15.407Z,930.36
2023-03-23T09:17:15.521Z,930.35
2023-03-23T09:18:15.707Z,930.38
2023-03-23T09:19:15.507Z,930.40
2023-03-23T09:20:15.507Z,930.44
2023-03-23T09:21:18.835Z,930.42
2023-03-23T09:22:15.353Z,930.42
2023-03-23T09:23:16.358Z,930.44
2023-03-23T09:24:15.426Z,930.47
2023-03-23T09:25:15.752Z,930.48
2023-03-23T09:26:15.451Z,930.45
2023-03-23T09:27:15.252Z,930.46
2023-03-23T09:28:15.254Z,930.45
2023-03-23T09:29:15.372Z,930.45
2023-03-23T09:30:15.301Z,930.47
2023-03-23T09:31:15.380Z,930.46
2023-03-23T09:32:15.312Z,930.51
2023-03-23T09:33:15.318Z,930.51
2023-03-23T09:34:15.325Z,930.49
2023-03-23T09:35:15.816Z,930.49
2023-03-23T09:36:15.453Z,930.50
2023-03-23T09:37:15.294Z,930.47
2023-03-23T09:38:15.228Z,930.47
2023-03-23T09:39:15.459Z,930.49
2023-03-23T09:40:15.373Z,930.48
2023-03-23T09:41:15.354Z,930.51
2023-03-23T09:42:15.985Z,930.53
2023-03-23T09:43:15.157Z,930.54
2023-03-23T09:44:15.139Z,930.53
2023-03-23T09:45:15.277Z,930.52
2023-03-23T09:46:15.686Z,930.50
2023-03-23T09:47:15.268Z,930.48
2023-03-23T09:48:15.417Z,930.50
2023-03-23T09:49:15.419Z,930.50
2023-03-23T09:50:15.079Z,930.52
2023-03-23T09:51:15.189Z,930.51
2023-03-23T09:52:15.422Z,930.51
2023-03-23T09:53:15.221Z,930.51
2023-03-23T09:54:15.148Z,930.53
2023-03-23T09:55:15.262Z,930.56
2023-03-23T09:56:15.185Z,930.52
2023-03-23T09:57:15.070Z,930.52
2023-03-23T09:58:15.175Z,930.55
2023-03-23T09:59:15.182Z,930.56
2023-03-23T10:00:15.150Z,930.57
2023-03-23T10:01:16.624Z,930.57
2023-03-23T10:02:15.684Z,930.58
2023-03-23T10:03:15.109Z,930.59
2023-03-23T10:04:15.109Z,930.60
2023-03-23T10:05:15.349Z,930.64
2023-03-23T10:06:15.853Z,930.65
2023-03-23T10:07:15.344Z,930.66
2023-03-23T10:08:14.938Z,930.69
2023-03-23T10:09:15.007Z,930.69
2023-03-23T10:10:15.052Z,930.73
2023-03-23T10:11:14.923Z,930.73
2023-03-23T10:12:15.030Z,930.69
2023-03-23T10:13:15.173Z,930.72
2023-03-23T10:14:14.946Z,930.73
2023-03-23T10:15:14.883Z,930.75
2023-03-23T10:16:14.886Z,930.76
2023-03-23T10:17:14.902Z,930.79
2023-03-23T10:18:14.858Z,930.82
2023-03-23T10:19:15.171Z,930.78
2023-03-23T10:20:14.912Z,930.84
2023-03-23T10:21:14.781Z,930.83
2023-03-23T10:22:14.783Z,930.85
2023-03-23T10:23:14.786Z,930.88
2023-03-23T10:24:14.649Z,930.87
2023-03-23T10:25:15.126Z,930.89
2023-03-23T10:26:14.761Z,930.94
2023-03-23T10:27:14.724Z,930.95
2023-03-23T10:28:14.876Z,930.97
2023-03-23T10:29:14.728Z,930.98
2023-03-23T10:30:14.789Z,931.01
2023-03-23T10:31:14.649Z,931.03
2023-03-23T10:32:14.588Z,931.04
2023-03-23T10:33:14.608Z,931.06
2023-03-23T10:34:14.775Z,931.08
2023-03-23T10:35:14.517Z,931.07
2023-03-23T10:36:14.663Z,931.03
2023-03-23T10:37:14.537Z,931.07
2023-03-23T10:38:14.596Z,931.08
2023-03-23T10:39:14.552Z,931.05
2023-03-23T10:40:14.507Z,931.08
2023-03-23T10:41:14.512Z,931.09
2023-03-23T10:42:14.520Z,931.11
2023-03-23T10:43:14.460Z,931.07
2023-03-23T10:44:14.434Z,931.07
2023-03-23T10:45:14.547Z,931.06
2023-03-23T10:46:23.004Z,931.09
2023-03-23T10:47:14.482Z,931.10
2023-03-23T10:48:14.493Z,931.06
2023-03-23T10:49:14.415Z,931.07
2023-03-23T10:50:14.471Z,931.06
2023-03-23T10:51:14.350Z,931.03
2023-03-23T10:52:14.378Z,931.03
2023-03-23T10:53:14.361Z,931.04
2023-03-23T10:54:14.396Z,931.03
2023-03-23T10:55:14.374Z,931.05
2023-03-23T10:56:14.458Z,931.06
2023-03-23T10:57:14.418Z,931.06
2023-03-23T10:58:14.299Z,931.10
2023-03-23T10:59:14.269Z,931.09
2023-03-23T11:00:14.409Z,931.11
2023-03-23T11:01:14.292Z,931.10
2023-03-23T11:02:21.055Z,931.12
2023-03-23T11:03:14.326Z,931.13
2023-03-23T11:04:14.311Z,931.16
2023-03-23T11:05:19.987Z,931.14
2023-03-23T11:06:14.318Z,931.20
2023-03-23T11:07:14.326Z,931.15
2023-03-23T11:08:14.329Z,931.20
2023-03-23T11:09:14.246Z,931.20
2023-03-23T11:10:14.175Z,931.25
2023-03-23T11:11:14.174Z,931.25
2023-03-23T11:12:14.305Z,931.23
2023-03-23T11:13:14.191Z,931.21
2023-03-23T11:14:14.201Z,931.27
2023-03-23T11:15:14.110Z,931.25
2023-03-23T11:16:14.107Z,931.27
2023-03-23T11:17:16.101Z,931.33
2023-03-23T11:18:14.128Z,931.32
2023-03-23T11:19:14.139Z,931.32
2023-03-23T11:20:15.063Z,931.33
2023-03-23T11:21:14.118Z,931.32
2023-03-23T11:22:14.055Z,931.35
2023-03-23T11:23:14.163Z,931.34
2023-03-23T11:24:14.642Z,931.34
2023-03-23T11:25:14.814Z,931.37
2023-03-23T11:26:14.185Z,931.37
2023-03-23T11:27:14.089Z,931.39
2023-03-23T11:28:13.986Z,931.42
2023-03-23T11:29:13.958Z,931.43
2023-03-23T11:30:14.618Z,931.47
2023-03-23T11:31:14.082Z,931.48
2023-03-23T11:32:14.094Z,931.42
2023-03-23T11:33:13.994Z,931.46
2023-03-23T11:34:13.934Z,931.41
2023-03-23T11:35:16.174Z,931.42
2023-03-23T11:36:14.180Z,931.44
2023-03-23T11:37:18.145Z,931.46
2023-03-23T11:38:13.957Z,931.47
2023-03-23T11:39:13.857Z,931.50
2023-03-23T11:40:13.937Z,931.50
2023-03-23T11:41:13.871Z,931.48
2023-03-23T11:42:13.881Z,931.50
2023-03-23T11:43:13.778Z,931.51
2023-03-23T11:44:13.889Z,931.50
2023-03-23T11:45:13.803Z,931.50
2023-03-23T11:46:13.879Z,931.55
2023-03-23T11:47:13.805Z,931.50
2023-03-23T11:48:13.779Z,931.50
2023-03-23T11:49:25.118Z,931.53
2023-03-23T11:50:13.792Z,931.51
2023-03-23T11:51:13.843Z,931.55
2023-03-23T11:52:13.736Z,931.55
2023-03-23T11:53:13.744Z,931.54
2023-03-23T11:54:14.312Z,931.54
2023-03-23T11:55:13.782Z,931.54
2023-03-23T11:56:13.656Z,931.57
2023-03-23T11:57:13.775Z,931.59
2023-03-23T11:58:13.720Z,931.59
2023-03-23T11:59:13.691Z,931.58
2023-03-23T12:00:13.656Z,931.60
2023-03-23T12:01:13.691Z,931.60
2023-03-23T12:02:17.321Z,931.60
2023-03-23T12:03:15.037Z,931.58
2023-03-23T12:04:13.606Z,931.58
2023-03-23T12:05:13.621Z,931.62
2023-03-23T12:06:13.589Z,931.59
2023-03-23T12:07:13.631Z,931.59
2023-03-23T12:08:13.610Z,931.62
2023-03-23T12:09:13.615Z,931.56
2023-03-23T12:10:15.961Z,931.56
2023-03-23T12:11:13.632Z,931.56
2023-03-23T12:12:13.539Z,931.56
2023-03-23T12:13:16.078Z,931.55
2023-03-23T12:14:13.553Z,931.60
2023-03-23T12:15:13.653Z,931.63
2023-03-23T12:16:13.562Z,931.62
2023-03-23T12:17:13.504Z,931.62
2023-03-23T12:18:13.453Z,931.60
2023-03-23T12:19:13.559Z,931.63
2023-03-23T12:20:13.420Z,931.64
2023-03-23T12:21:14.554Z,931.65
2023-03-23T12:22:13.487Z,931.66
2023-03-23T12:23:13.386Z,931.67
2023-03-23T12:24:13.349Z,931.67
2023-03-23T12:25:13.462Z,931.66
2023-03-23T12:26:13.367Z,931.68
2023-03-23T12:27:13.361Z,931.69
2023-03-23T12:28:13.728Z,931.70